Погода Арменияна неделю

Сонсонате, Сальвадор

28 февраля-05 марта
  • 28февраля
    Сегодня
    +20°
    +34°
    Практически безоблачно
    ВремяПогодаТемператураВлажностьДавлениеВетер, м/сВероятность осадков
    00:00Практически безоблачно+21°C74 %715 мм0.7 м/с2 %
    03:00Ясно и безоблачно+20°C76 %714 мм1.2 м/с2 %
    06:00Ясно и безоблачно+21°C77 %715 мм1.3 м/с2 %
    09:00Ясно и безоблачно+28°C50 %717 мм1.9 м/с2 %
    12:00Ясно и безоблачно+34°C30 %716 мм1.3 м/с2 %
    15:00Практически безоблачно+31°C53 %714 мм4.2 м/с2 %
    18:00Ясно и безоблачно+25°C74 %714 мм3.9 м/с2 %
    21:00Ясно и безоблачно+21°C84 %715 мм0.9 м/с2 %
  • 29февраля
    Четверг
    +20°
    +35°
    Ясно и безоблачно
    ВремяПогодаТемператураВлажностьДавлениеВетер, м/сВероятность осадков
    00:00Ясно и безоблачно+21°C84 %715 мм1.4 м/с2 %
    03:00Ясно и безоблачно+21°C86 %715 мм1.4 м/с2 %
    06:00Ясно и безоблачно+20°C91 %716 мм1.4 м/с2 %
    09:00Ясно и безоблачно+28°C55 %718 мм2.7 м/с2 %
    12:00Ясно и безоблачно+34°C31 %717 мм3.1 м/с2 %
    15:00Ясно и безоблачно+31°C49 %714 мм3.6 м/с4 %
    18:00Практически безоблачно+26°C75 %715 мм3.7 м/с2 %
    21:00Ясно и безоблачно+23°C77 %716 мм0.5 м/с2 %
  • 01марта
    Пятница
    +20°
    +35°
    Практически безоблачно
    ВремяПогодаТемператураВлажностьДавлениеВетер, м/сВероятность осадков
    00:00Ясно и безоблачно+22°C81 %716 мм1.5 м/с2 %
    03:00Ясно и безоблачно+21°C84 %715 мм1.6 м/с2 %
    06:00Ясно и безоблачно+21°C85 %716 мм1.6 м/с2 %
    09:00Ясно и безоблачно+27°C52 %719 мм2.9 м/с2 %
    12:00Практически безоблачно+33°C31 %717 мм3.1 м/с2 %
    15:00Практически безоблачно+32°C40 %715 мм3.2 м/с15 %
    18:00Практически безоблачно+26°C76 %715 мм4.4 м/с2 %
    21:00Ясно и безоблачно+21°C89 %716 мм0.7 м/с2 %
  • 02марта
    Суббота
    +20°
    +34°
    Небольшая облачность, ливень
    ВремяПогодаТемператураВлажностьДавлениеВетер, м/сВероятность осадков
    00:00Ясно и безоблачно+21°C88 %716 мм0.8 м/с5 %
    03:00Ясно и безоблачно+20°C85 %715 мм1.1 м/с6 %
    06:00Ясно и безоблачно+20°C91 %716 мм1.2 м/с2 %
    09:00Небольшая облачность+28°C53 %718 мм1.1 м/с4 %
    12:00Небольшая облачность+33°C38 %717 мм1.2 м/с44 %
    15:00Небольшая облачность, ливень+29°C57 %715 мм4.1 м/с86 %
    18:00Ясно и безоблачно+25°C79 %715 мм3.5 м/с31 %
    21:00Ясно и безоблачно+21°C85 %716 мм1.0 м/с4 %
Мы используем cookies
Соглашаюсь